DMN - Deming Muni

Pirep is a free, collaborative database of all public and private airports located within the United States. All pilots are welcome to contribute, edit, and improve any airport they have local knowledge about, no registration required.
Are you familiar with this airport? Help out other pilots by adding your local knowledge.
Uploaded photos will be licensed under a CC BY-SA 4.0 license. Please only upload photos you have the rights to use.
Tags
Public
Undocu­mented
METAR / TAF
Edit Tags
Food
Camping
Lodging
Car Rental
Bicycles
Swimming
Golfing
Fishing
Hot Springs
Museum
Flying Clubs
Airpark
Upcoming Events
No upcoming events. Is anything happening here soon?
*
*
*

Where exactly on/near the airport is this event taking place?

Is there a webpage with more information for this event?

Who should be contacted for more information?

What is this event all about?

Repeat every
Description
Transient Parking
Fuel Location
Landing & Tie-down Fees
Crew Car Availability
Flying Clubs
WiFi Access
Airport Statistics
Location: Deming, NM
Elevation: 4,314ft
Sectional: Albuquerque
Activation date: Oct 1937
Fuel: 100LL, A1+ (prices)
Runway 08/26: 8,018ft
Runway 04/22: 5,675ft
Access: Open to the public
Current Weather — VFR
  • Weather data is strictly informational and not for flight planning purposes.
  • METAR
    2024-04-22 05:53:00 MDT
    Ceiling Wind Temperature Dewpoint Weather Visbility
    Sky clear 50° @ 8kt 46°F 37°F N/A 10SM
    Raw: KDMN 221153Z AUTO 05008KT 10SM CLR 08/03 A3013 RMK AO2 SLP154 T00780028 10144 20078 58000
  • TAF
    2024-04-22 06:00:00 MDT – 2024-04-22 12:00:00 MDT
    Ceiling Wind Weather Visbility
    Sky clear 70° @ 9kt N/A 6SM
    Clouds: @ ft
    Raw: KDMN 221120Z 2212/2312 07009KT P6SM SKC FM221800 16006KT P6SM SKC FM230600 25005KT P6SM SKC
  • TAF
    2024-04-22 12:00:00 MDT – 2024-04-23 00:00:00 MDT
    Ceiling Wind Weather Visbility
    Sky clear 160° @ 6kt N/A 6SM
    Clouds: @ ft
    Raw: KDMN 221120Z 2212/2312 07009KT P6SM SKC FM221800 16006KT P6SM SKC FM230600 25005KT P6SM SKC
  • TAF
    2024-04-23 00:00:00 MDT – 2024-04-23 06:00:00 MDT
    Ceiling Wind Weather Visbility
    Sky clear 250° @ 5kt N/A 6SM
    Clouds: @ ft
    Raw: KDMN 221120Z 2212/2312 07009KT P6SM SKC FM221800 16006KT P6SM SKC FM230600 25005KT P6SM SKC
Click/tap to add an annotation marker to the map
Airport Webcams
No webcams added yet.
Direct links to live image URLs will be displayed inline on this page. URLs to separate webpages will be linked to.
URL:
Direct links to live image URLs will be displayed inline on this page. URLs to separate webpages will be linked to.
URL:
Remarks
  • Hel arr & dep e; rmn n of segmented circle.
  • Intxn tkof na.
  • For cd if una to ctc on fss freq, ctc albuquerque artcc at 505-856-4561.
  • Emerg acft & powerplant repair - amgr.
  • Actvt papi rwy 04, 08, 22, 26; mirl rwy 08/26 - ctaf. 1730-2230 papi rwy 04, 08, 22, 26; mirl rwy 08/26 preset low intst; incr intst - ctaf.
  • Aft hr - 575-494-2311.
  • +5 ft brush 180 ft fm thr 75 ft l of cntrln.
  • +3-8 ft brush 60-200 ft fm thr 75 ft r & l of cntrln.
Comments
Leave a comment What was your experience like at this airport?